Hlavní strana
METAR-TAF:

METAR-TAF

Letiště :

Twin County Airport

Galax / Hillsville, Virginie, Spojené státy americké

zeměpisná šířka: 36-46N, zeměpisná délka: 080-49W, výška: 834 m

Aktuální stav počasí

Zpráva byla vytvořena před 21 minutami, v 04:35 UTC
Severoseverozápadní vítr 4 kt
Teplota 3°C
Vlhkost vzduchu 75%
Tlak 1026 hPa
Viditelnost: 16.1 km
Jasno

METAR: KHLX 310435Z AUTO 34004KT 10SM CLR 03/M01 A3029 RMK AO2 T00301011

Čas: 00:56 (04:56 UTC)


TAF: chybějící

Stav a předpovědi počasí z více než 4 000 letišť (zprávy METAR a TAF).

Červené a žluté tečky na mapě představují dostupné meteorologické stanice.

Když kurzor umístíte na tečku, zobrazí se název stanice.

Pak kliknutím zobrazíte stav a předpověď počasí.

Chcete-li změnit mapu, kliknutím na zelené tlačítko se znaménkem +mapu přiblížíte, kliknutím na zelené tlačítko se znaménkem – mapu oddálíte a kliknutím na zelené šipky přejdete na sousední mapy.


METAR-TAF: